createdAt,value
2023-09-10T00:00:16.545Z,99.90
2023-09-10T00:03:04.166Z,99.90
2023-09-10T00:05:51.726Z,99.90
2023-09-10T00:08:39.705Z,99.90
2023-09-10T00:11:28.177Z,99.90
2023-09-10T00:14:18.167Z,99.90
2023-09-10T00:17:05.893Z,99.90
2023-09-10T00:19:54.203Z,99.90
2023-09-10T00:22:45.481Z,99.90
2023-09-10T00:25:33.088Z,99.90
2023-09-10T00:28:20.611Z,99.90
2023-09-10T00:31:09.076Z,99.90
2023-09-10T00:33:56.663Z,99.90
2023-09-10T00:36:44.116Z,99.90
2023-09-10T00:39:31.471Z,99.90
2023-09-10T00:42:19.012Z,99.90
2023-09-10T00:45:11.757Z,99.90
2023-09-10T00:48:00.031Z,99.90
2023-09-10T00:50:47.751Z,99.90
2023-09-10T00:53:34.987Z,99.90
2023-09-10T00:56:22.717Z,99.90
2023-09-10T00:59:10.784Z,99.90
2023-09-10T01:02:00.203Z,99.90
2023-09-10T01:04:47.500Z,99.90
2023-09-10T01:07:35.507Z,99.90
2023-09-10T01:10:25.956Z,99.90
2023-09-10T01:13:49.499Z,99.90
2023-09-10T01:16:55.288Z,99.90
2023-09-10T01:20:00.719Z,99.90
2023-09-10T01:22:54.311Z,99.90
2023-09-10T01:25:42.064Z,99.90
2023-09-10T01:28:29.400Z,99.90
2023-09-10T01:31:16.636Z,99.90
2023-09-10T01:34:07.090Z,99.90
2023-09-10T01:36:57.690Z,99.90
2023-09-10T01:39:48.069Z,99.90
2023-09-10T01:42:38.054Z,99.90
2023-09-10T01:45:25.484Z,99.90
2023-09-10T01:48:13.412Z,99.90
2023-09-10T01:51:01.175Z,99.90
2023-09-10T01:53:48.573Z,99.90
2023-09-10T01:56:35.867Z,99.90
2023-09-10T01:59:23.495Z,99.90
2023-09-10T02:02:13.071Z,99.90
2023-09-10T02:05:00.835Z,99.90
2023-09-10T02:07:48.451Z,99.90
2023-09-10T02:10:35.927Z,99.90
2023-09-10T02:13:23.214Z,99.90
2023-09-10T02:16:11.284Z,99.90
2023-09-10T02:18:58.754Z,99.90
2023-09-10T02:21:46.337Z,99.90
2023-09-10T02:24:33.838Z,99.90
2023-09-10T02:27:21.168Z,99.90
2023-09-10T02:30:09.226Z,99.90
2023-09-10T02:32:56.823Z,99.90
2023-09-10T02:35:44.374Z,99.90
2023-09-10T02:38:33.448Z,99.90
2023-09-10T02:41:21.000Z,99.90
2023-09-10T02:44:09.237Z,99.90
2023-09-10T02:46:56.584Z,99.90
2023-09-10T02:49:43.652Z,99.90
2023-09-10T02:52:32.107Z,99.90
2023-09-10T02:55:19.489Z,99.90
2023-09-10T02:58:07.428Z,99.90
2023-09-10T03:00:55.142Z,99.90
2023-09-10T03:03:42.625Z,99.90
2023-09-10T03:06:30.215Z,99.90
2023-09-10T03:09:18.872Z,99.90
2023-09-10T03:12:27.417Z,99.90
2023-09-10T03:15:17.888Z,99.90
2023-09-10T03:18:05.424Z,99.90
2023-09-10T03:20:52.809Z,99.90
2023-09-10T03:23:40.272Z,99.90
2023-09-10T03:26:27.911Z,99.90
2023-09-10T03:29:15.044Z,99.90
2023-09-10T03:32:04.144Z,99.90
2023-09-10T03:34:51.413Z,99.90
2023-09-10T03:37:39.117Z,99.90
2023-09-10T03:40:26.464Z,99.90
2023-09-10T03:43:13.945Z,99.90
2023-09-10T03:46:01.182Z,99.90
2023-09-10T03:48:48.477Z,99.90
2023-09-10T03:51:35.793Z,99.90
2023-09-10T03:54:23.462Z,99.90
2023-09-10T03:57:11.043Z,99.90
2023-09-10T03:59:59.037Z,99.90
2023-09-10T04:02:46.450Z,99.90
2023-09-10T04:05:33.843Z,99.90
2023-09-10T04:08:21.436Z,99.90
2023-09-10T04:11:10.085Z,99.90
2023-09-10T04:13:57.556Z,99.90
2023-09-10T04:16:45.219Z,99.90
2023-09-10T04:19:32.479Z,99.90
2023-09-10T04:22:20.143Z,99.90
2023-09-10T04:25:08.193Z,99.90
2023-09-10T04:27:55.449Z,99.90
2023-09-10T04:30:43.356Z,99.90
2023-09-10T04:33:30.687Z,99.90
2023-09-10T04:36:18.244Z,99.90
2023-09-10T04:39:07.635Z,99.90
2023-09-10T04:41:55.048Z,99.90
2023-09-10T04:45:02.482Z,99.90
2023-09-10T04:47:49.889Z,99.90
2023-09-10T04:50:37.192Z,99.90
2023-09-10T04:53:24.575Z,99.90
2023-09-10T04:56:12.376Z,99.90
2023-09-10T04:58:59.927Z,99.90
2023-09-10T05:01:47.617Z,99.90
2023-09-10T05:04:35.160Z,99.90
2023-09-10T05:07:22.796Z,99.90
2023-09-10T05:10:12.682Z,99.90
2023-09-10T05:12:59.545Z,99.90
2023-09-10T05:15:49.435Z,99.90
2023-09-10T05:18:37.122Z,99.90
2023-09-10T05:21:24.484Z,99.90
2023-09-10T05:24:12.285Z,99.90
2023-09-10T05:26:59.596Z,99.90
2023-09-10T05:29:47.255Z,99.90
2023-09-10T05:32:34.832Z,99.90
2023-09-10T05:35:22.577Z,99.90
2023-09-10T05:38:11.389Z,99.90
2023-09-10T05:41:04.102Z,99.90
2023-09-10T05:43:51.506Z,99.90
2023-09-10T05:46:39.392Z,99.90
2023-09-10T05:49:27.527Z,99.90
2023-09-10T05:52:15.194Z,99.90
2023-09-10T05:55:02.819Z,99.90
2023-09-10T05:57:51.594Z,99.90
2023-09-10T06:00:39.762Z,99.90
2023-09-10T06:03:27.458Z,99.90
2023-09-10T06:06:14.967Z,99.90
2023-09-10T06:09:02.233Z,99.90
2023-09-10T06:11:50.092Z,99.90
2023-09-10T06:14:37.479Z,99.90
2023-09-10T06:17:25.259Z,99.90
2023-09-10T06:20:13.933Z,99.90
2023-09-10T06:23:01.137Z,99.90
2023-09-10T06:25:48.896Z,99.90
2023-09-10T06:28:36.841Z,99.90
2023-09-10T06:31:24.520Z,99.90
2023-09-10T06:34:12.192Z,99.90
2023-09-10T06:37:00.364Z,99.90
2023-09-10T06:39:47.835Z,99.90
2023-09-10T06:42:35.411Z,99.90
2023-09-10T06:45:22.960Z,99.90
2023-09-10T06:48:10.818Z,99.90
2023-09-10T06:51:00.050Z,99.90
2023-09-10T06:53:48.762Z,99.90
2023-09-10T06:56:36.324Z,99.90
2023-09-10T06:59:25.835Z,99.90
2023-09-10T07:02:13.619Z,99.90
2023-09-10T07:05:00.902Z,99.90
2023-09-10T07:07:50.650Z,99.90
2023-09-10T07:10:38.083Z,99.90
2023-09-10T07:13:25.816Z,99.90
2023-09-10T07:16:13.536Z,99.90
2023-09-10T07:19:00.866Z,99.90
2023-09-10T07:21:48.571Z,99.90
2023-09-10T07:24:36.046Z,99.90
2023-09-10T07:27:23.775Z,99.90
2023-09-10T07:30:12.505Z,99.90
2023-09-10T07:33:00.163Z,99.90
2023-09-10T07:35:49.459Z,99.90
2023-09-10T07:38:37.740Z,99.90
2023-09-10T07:41:25.469Z,99.90
2023-09-10T07:44:13.305Z,99.90
2023-09-10T07:47:00.607Z,99.90
2023-09-10T07:49:51.631Z,99.90
2023-09-10T07:52:38.745Z,99.90
2023-09-10T07:55:26.467Z,99.90
2023-09-10T07:58:13.576Z,99.90
2023-09-10T08:01:01.280Z,99.90
2023-09-10T08:03:48.731Z,99.90
2023-09-10T08:06:36.836Z,99.90
2023-09-10T08:09:24.178Z,99.90
2023-09-10T08:12:12.385Z,99.90
2023-09-10T08:15:00.014Z,99.90
2023-09-10T08:17:47.708Z,99.90
2023-09-10T08:20:35.333Z,99.90
2023-09-10T08:23:22.900Z,99.90
2023-09-10T08:26:10.335Z,99.90
2023-09-10T08:28:58.062Z,99.90
2023-09-10T08:31:46.589Z,99.90
2023-09-10T08:34:34.234Z,99.90
2023-09-10T08:37:21.620Z,99.90
2023-09-10T08:40:11.166Z,99.90
2023-09-10T08:43:01.899Z,99.90
2023-09-10T08:45:51.081Z,99.90
2023-09-10T08:48:43.233Z,99.90
2023-09-10T08:51:32.473Z,99.90
2023-09-10T08:54:19.758Z,99.90
2023-09-10T08:57:07.634Z,99.90
2023-09-10T08:59:55.727Z,99.90
2023-09-10T09:02:48.135Z,99.90
2023-09-10T09:05:37.034Z,99.90
2023-09-10T09:08:27.574Z,99.90
2023-09-10T09:11:16.040Z,99.90
2023-09-10T09:14:06.105Z,99.90
2023-09-10T09:16:54.503Z,99.90
2023-09-10T09:19:45.626Z,99.90
2023-09-10T09:22:35.163Z,99.90
2023-09-10T09:25:23.474Z,99.90
2023-09-10T09:28:11.616Z,99.90
2023-09-10T09:30:59.289Z,99.90
2023-09-10T09:33:46.610Z,99.90
2023-09-10T09:36:35.358Z,99.90
2023-09-10T09:39:23.060Z,99.90
2023-09-10T09:42:11.843Z,99.90
2023-09-10T09:44:59.501Z,99.90
2023-09-10T09:47:50.643Z,99.90
2023-09-10T09:50:39.436Z,99.90
2023-09-10T09:53:32.246Z,99.90
2023-09-10T09:56:19.503Z,99.90
2023-09-10T09:59:07.462Z,99.90
2023-09-10T10:01:54.998Z,99.90
2023-09-10T10:04:46.031Z,99.90
2023-09-10T10:10:24.226Z,99.90
2023-09-10T10:13:12.225Z,99.90
2023-09-10T10:15:59.616Z,99.90
2023-09-10T10:18:47.857Z,99.90
2023-09-10T10:21:35.655Z,99.90
2023-09-10T10:24:24.374Z,99.90
2023-09-10T10:27:12.519Z,99.90
2023-09-10T10:29:59.926Z,99.90
2023-09-10T10:32:49.186Z,99.90
2023-09-10T10:35:39.921Z,99.90
2023-09-10T10:38:30.563Z,99.90
2023-09-10T10:41:23.875Z,99.90
2023-09-10T10:44:23.843Z,99.90
2023-09-10T10:47:23.570Z,99.90
2023-09-10T10:50:12.300Z,99.90
2023-09-10T10:53:17.242Z,99.90
2023-09-10T10:56:05.373Z,99.20
2023-09-10T10:58:53.338Z,99.80
2023-09-10T11:01:41.569Z,98.80
2023-09-10T11:04:31.963Z,98.10
2023-09-10T11:07:20.614Z,97.70
2023-09-10T11:10:30.960Z,97.10
2023-09-10T11:13:18.624Z,95.00
2023-09-10T11:16:09.544Z,97.10
2023-09-10T11:18:57.114Z,95.80
2023-09-10T11:22:00.462Z,94.20
2023-09-10T11:25:07.953Z,94.80
2023-09-10T11:27:55.611Z,95.20
2023-09-10T11:30:43.325Z,93.00
2023-09-10T11:33:32.691Z,92.90
2023-09-10T11:36:20.446Z,93.10
2023-09-10T11:39:09.423Z,91.90
2023-09-10T11:41:58.260Z,92.10
2023-09-10T11:44:45.840Z,91.80
2023-09-10T11:47:34.996Z,91.30
2023-09-10T11:50:25.591Z,90.90
2023-09-10T11:53:15.484Z,90.30
2023-09-10T11:56:02.156Z,90.40
2023-09-10T11:58:50.435Z,87.90
2023-09-10T12:01:38.262Z,86.80
2023-09-10T12:04:33.140Z,87.50
2023-09-10T12:07:21.771Z,87.00
2023-09-10T12:10:09.311Z,88.60
2023-09-10T12:12:58.639Z,85.60
2023-09-10T12:15:46.465Z,85.80
2023-09-10T12:18:36.012Z,88.50
2023-09-10T12:21:24.697Z,86.80
2023-09-10T12:24:13.859Z,86.10
2023-09-10T12:27:01.475Z,87.00
2023-09-10T12:29:49.184Z,85.60
2023-09-10T12:32:37.459Z,82.40
2023-09-10T12:35:25.253Z,83.20
2023-09-10T12:38:19.519Z,83.10
2023-09-10T12:41:07.207Z,81.80
2023-09-10T12:43:55.093Z,81.30
2023-09-10T12:46:42.761Z,80.00
2023-09-10T12:49:30.405Z,82.30
2023-09-10T12:52:18.620Z,82.90
2023-09-10T12:55:06.427Z,80.60
2023-09-10T12:57:59.388Z,82.40
2023-09-10T13:00:49.971Z,79.70
2023-09-10T13:03:37.504Z,78.00
2023-09-10T13:06:24.708Z,78.50
2023-09-10T13:09:12.431Z,77.50
2023-09-10T13:11:59.939Z,78.90
2023-09-10T13:14:47.636Z,76.70
2023-09-10T13:17:35.714Z,79.40
2023-09-10T13:20:25.084Z,82.60
2023-09-10T13:23:12.793Z,81.40
2023-09-10T13:26:00.752Z,77.50
2023-09-10T13:28:48.262Z,79.30
2023-09-10T13:31:35.696Z,79.30
2023-09-10T13:34:23.102Z,80.90
2023-09-10T13:37:10.914Z,75.40
2023-09-10T13:39:58.995Z,77.70
2023-09-10T13:42:46.323Z,78.10
2023-09-10T13:45:33.896Z,79.40
2023-09-10T13:48:22.081Z,78.00
2023-09-10T13:51:12.055Z,77.90
2023-09-10T13:54:02.070Z,79.70
2023-09-10T13:56:48.627Z,79.90
2023-09-10T13:59:36.095Z,77.90
2023-09-10T14:02:25.337Z,78.70
2023-09-10T14:05:13.001Z,79.10
2023-09-10T14:08:02.199Z,77.40
2023-09-10T14:10:49.817Z,82.40
2023-09-10T14:13:36.792Z,76.10
2023-09-10T14:16:24.131Z,82.00
2023-09-10T14:19:12.156Z,79.60
2023-09-10T14:21:59.769Z,76.60
2023-09-10T14:24:47.033Z,79.00
2023-09-10T14:27:34.345Z,79.90
2023-09-10T14:30:21.715Z,79.00
2023-09-10T14:33:08.988Z,78.70
2023-09-10T14:35:58.375Z,74.10
2023-09-10T14:38:47.006Z,77.20
2023-09-10T14:41:34.733Z,77.60
2023-09-10T14:44:22.282Z,73.80
2023-09-10T14:47:09.702Z,74.80
2023-09-10T14:49:57.018Z,75.30
2023-09-10T14:52:45.296Z,73.70
2023-09-10T14:55:33.015Z,76.10
2023-09-10T14:58:20.334Z,73.30
2023-09-10T15:01:07.853Z,73.90
2023-09-10T15:03:55.453Z,72.90
2023-09-10T15:06:42.647Z,73.00
2023-09-10T15:09:30.101Z,73.40
2023-09-10T15:12:17.705Z,73.60
2023-09-10T15:15:05.426Z,72.60
2023-09-10T15:17:53.041Z,71.30
2023-09-10T15:20:42.269Z,73.80
2023-09-10T15:23:29.498Z,71.70
2023-09-10T15:26:17.795Z,71.10
2023-09-10T15:29:05.391Z,67.10
2023-09-10T15:31:52.800Z,68.70
2023-09-10T15:34:41.872Z,69.40
2023-09-10T15:37:28.991Z,68.20
2023-09-10T15:40:18.165Z,67.00
2023-09-10T15:43:05.578Z,65.90
2023-09-10T15:45:53.375Z,68.40
2023-09-10T15:48:42.203Z,71.40
2023-09-10T15:51:29.472Z,72.90
2023-09-10T15:54:16.998Z,71.90
2023-09-10T15:57:05.782Z,72.20
2023-09-10T15:59:54.174Z,71.30
2023-09-10T16:02:42.490Z,70.60
2023-09-10T16:05:30.381Z,68.60
2023-09-10T16:08:17.729Z,69.70
2023-09-10T16:11:05.997Z,67.40
2023-09-10T16:13:54.943Z,65.00
2023-09-10T16:16:42.770Z,68.70
2023-09-10T16:19:30.118Z,68.30
2023-09-10T16:22:20.760Z,70.50
2023-09-10T16:25:11.177Z,72.20
2023-09-10T16:27:58.815Z,70.00
2023-09-10T16:30:46.189Z,69.10
2023-09-10T16:33:34.267Z,69.50
2023-09-10T16:36:24.222Z,70.90
2023-09-10T16:39:11.521Z,70.30
2023-09-10T16:41:59.087Z,70.30
2023-09-10T16:44:48.036Z,70.60
2023-09-10T16:47:35.766Z,71.50
2023-09-10T16:50:23.096Z,72.00
2023-09-10T16:53:10.110Z,73.30
2023-09-10T16:55:58.239Z,74.60
2023-09-10T16:58:45.600Z,79.90
2023-09-10T17:01:33.168Z,84.40
2023-09-10T17:04:20.960Z,86.60
2023-09-10T17:07:10.589Z,88.60
2023-09-10T17:09:57.850Z,88.10
2023-09-10T17:12:46.554Z,89.30
2023-09-10T17:15:35.592Z,90.40
2023-09-10T17:18:22.775Z,89.50
2023-09-10T17:21:11.089Z,89.90
2023-09-10T17:23:59.950Z,91.60
2023-09-10T17:26:48.260Z,92.70
2023-09-10T17:29:35.683Z,93.50
2023-09-10T17:32:23.465Z,95.30
2023-09-10T17:35:10.952Z,97.10
2023-09-10T17:37:58.513Z,99.10
2023-09-10T17:40:45.955Z,99.90
2023-09-10T17:43:33.281Z,99.90
2023-09-10T17:46:20.963Z,99.90
2023-09-10T17:49:08.366Z,99.90
2023-09-10T17:51:55.739Z,99.90
2023-09-10T17:54:43.253Z,99.90
2023-09-10T17:57:30.809Z,99.90
2023-09-10T18:00:18.493Z,99.90
2023-09-10T18:03:06.375Z,99.90
2023-09-10T18:05:54.074Z,99.90
2023-09-10T18:08:41.460Z,99.90
2023-09-10T18:11:29.054Z,99.90
2023-09-10T18:14:16.303Z,99.90
2023-09-10T18:17:04.039Z,99.90
2023-09-10T18:19:51.343Z,99.90
2023-09-10T18:22:38.860Z,99.90
2023-09-10T18:25:26.139Z,99.90
2023-09-10T18:28:13.681Z,99.90
2023-09-10T18:31:05.460Z,99.90
2023-09-10T18:33:53.117Z,99.90
2023-09-10T18:36:40.771Z,99.90
2023-09-10T18:39:28.566Z,99.90
2023-09-10T18:42:15.829Z,99.90
2023-09-10T18:45:04.023Z,99.90
2023-09-10T18:47:51.898Z,99.90
2023-09-10T18:50:43.236Z,99.90
2023-09-10T18:53:30.314Z,99.90
2023-09-10T18:56:18.271Z,99.90
2023-09-10T18:59:06.189Z,99.90
2023-09-10T19:01:53.309Z,99.90
2023-09-10T19:04:41.337Z,99.90
2023-09-10T19:07:29.048Z,99.90
2023-09-10T19:10:16.947Z,99.90
2023-09-10T19:13:04.568Z,99.90
2023-09-10T19:15:52.912Z,99.90
2023-09-10T19:18:40.539Z,99.90
2023-09-10T19:21:28.125Z,99.90
2023-09-10T19:24:16.159Z,99.90
2023-09-10T19:27:03.563Z,99.90
2023-09-10T19:29:50.920Z,99.90
2023-09-10T19:32:38.539Z,99.90
2023-09-10T19:35:26.075Z,99.90
2023-09-10T19:38:13.427Z,99.90
2023-09-10T19:41:01.083Z,99.90
2023-09-10T19:43:50.368Z,99.90
2023-09-10T19:46:38.486Z,99.90
2023-09-10T19:49:26.065Z,99.90
2023-09-10T19:52:13.609Z,99.90
2023-09-10T19:55:09.564Z,99.90
2023-09-10T19:57:55.836Z,99.90
2023-09-10T20:00:45.115Z,99.90
2023-09-10T20:03:33.127Z,99.90
2023-09-10T20:06:20.683Z,99.90
2023-09-10T20:09:08.845Z,99.90
2023-09-10T20:11:56.056Z,99.90
2023-09-10T20:14:43.653Z,99.90
2023-09-10T20:17:30.773Z,99.90
2023-09-10T20:20:18.909Z,99.90
2023-09-10T20:23:06.361Z,99.90
2023-09-10T20:25:53.874Z,99.90
2023-09-10T20:28:41.051Z,99.90
2023-09-10T20:31:28.567Z,99.90
2023-09-10T20:34:16.068Z,99.90
2023-09-10T20:37:03.351Z,99.90
2023-09-10T20:39:52.748Z,99.90
2023-09-10T20:42:40.034Z,99.90
2023-09-10T20:45:27.377Z,99.90
2023-09-10T20:48:14.542Z,99.90
2023-09-10T20:51:07.257Z,99.90
2023-09-10T20:53:54.739Z,99.90
2023-09-10T20:56:42.421Z,99.90
2023-09-10T20:59:29.775Z,99.90
2023-09-10T21:02:17.334Z,99.90
2023-09-10T21:05:07.923Z,99.90
2023-09-10T21:07:54.268Z,99.90
2023-09-10T21:10:42.797Z,99.90
2023-09-10T21:13:30.405Z,99.90
2023-09-10T21:16:18.284Z,99.90
2023-09-10T21:19:06.011Z,99.90
2023-09-10T21:21:53.318Z,99.90
2023-09-10T21:24:40.684Z,99.90
2023-09-10T21:27:28.236Z,99.90
2023-09-10T21:30:15.653Z,99.90
2023-09-10T21:33:03.702Z,99.90
2023-09-10T21:35:52.974Z,99.90
2023-09-10T21:38:41.042Z,99.90
2023-09-10T21:41:28.614Z,99.90
2023-09-10T21:44:16.188Z,99.90
2023-09-10T21:47:04.809Z,99.90
2023-09-10T21:49:52.116Z,99.90
2023-09-10T21:52:40.824Z,99.90
2023-09-10T21:55:28.685Z,99.90
2023-09-10T21:58:16.187Z,99.90
2023-09-10T22:01:03.651Z,99.90
2023-09-10T22:03:51.380Z,99.90
2023-09-10T22:06:39.569Z,99.90
2023-09-10T22:09:29.023Z,99.90
2023-09-10T22:12:16.593Z,99.90
2023-09-10T22:15:06.218Z,99.90
2023-09-10T22:17:53.390Z,99.90
2023-09-10T22:20:40.571Z,99.90
2023-09-10T22:23:28.235Z,99.90
2023-09-10T22:26:15.823Z,99.90
2023-09-10T22:29:03.512Z,99.90
2023-09-10T22:31:51.304Z,99.90
2023-09-10T22:34:38.502Z,99.90
2023-09-10T22:37:26.130Z,99.90
2023-09-10T22:40:13.590Z,99.90
2023-09-10T22:43:00.963Z,99.90
2023-09-10T22:45:48.571Z,99.90
2023-09-10T22:48:35.995Z,99.90
2023-09-10T22:51:23.748Z,99.90
2023-09-10T22:54:11.587Z,99.90
2023-09-10T22:56:59.376Z,99.90
2023-09-10T22:59:46.774Z,99.90
2023-09-10T23:02:34.068Z,99.90
2023-09-10T23:05:21.430Z,99.90
2023-09-10T23:08:08.792Z,99.90
2023-09-10T23:10:56.387Z,99.90
2023-09-10T23:13:44.580Z,99.90
2023-09-10T23:16:31.820Z,99.90
2023-09-10T23:19:19.341Z,99.90
2023-09-10T23:22:06.795Z,99.90
2023-09-10T23:24:55.797Z,99.90
2023-09-10T23:27:43.172Z,99.90
2023-09-10T23:30:30.864Z,99.90
2023-09-10T23:33:18.448Z,99.90
2023-09-10T23:36:08.913Z,99.90
2023-09-10T23:38:56.796Z,99.90
2023-09-10T23:41:44.251Z,99.90
2023-09-10T23:44:31.773Z,99.90
2023-09-10T23:47:18.727Z,99.90
2023-09-10T23:50:06.978Z,99.90
2023-09-10T23:52:54.391Z,99.90
2023-09-10T23:55:42.120Z,99.90
2023-09-10T23:58:30.985Z,99.90
